Time;durP1;ratioP1;P1;durP2;ratioP2;P2;SDS_P1;SDS_P2;PMS_P1;PMS_P2;Temp;Humidity;BMP_temperature;BMP_pressure;BME280_temperature;BME280_humidity;BME280_pressure;Samples;Min_cycle;Max_cycle;Signal;HPM_P1;HPM_P2
2021/10/11 00:09:38;;;;;;;;;;;5.00;99.90;;;;;;20935248;28;19920;-78
2021/10/11 00:19:39;;;;;;;;;;;4.90;99.90;;;;;;20935686;28;19912;-79
2021/10/11 00:29:40;;;;;;;;;;;4.80;99.90;;;;;;20932712;28;19909;-79
2021/10/11 00:39:40;;;;;;;;;;;4.40;99.90;;;;;;20950301;28;20374;-78
2021/10/11 00:49:41;;;;;;;;;;;4.10;99.90;;;;;;20934953;28;19908;-79
2021/10/11 00:59:43;;;;;;;;;;;4.30;99.90;;;;;;20924255;28;20474;-78
2021/10/11 01:09:43;;;;;;;;;;;4.70;99.90;;;;;;20913120;28;19909;-77
2021/10/11 01:19:48;;;;;;;;;;;4.60;99.90;;;;;;20912466;28;19943;-78
2021/10/11 01:29:49;;;;;;;;;;;4.50;99.90;;;;;;20911765;28;19916;-77
2021/10/11 01:39:51;;;;;;;;;;;4.00;99.90;;;;;;20910317;28;19920;-77
2021/10/11 01:49:51;;;;;;;;;;;3.70;99.90;;;;;;20910252;28;20321;-77
2021/10/11 01:59:52;;;;;;;;;;;3.40;99.90;;;;;;20909170;28;20307;-77
2021/10/11 02:09:53;;;;;;;;;;;3.00;99.90;;;;;;20909042;28;19908;-78
2021/10/11 02:19:53;;;;;;;;;;;3.40;99.90;;;;;;20908545;28;19912;-78
2021/10/11 02:29:54;;;;;;;;;;;3.30;99.90;;;;;;20908041;28;20019;-77
2021/10/11 02:39:59;;;;;;;;;;;3.00;99.90;;;;;;20907748;28;19959;-77
2021/10/11 02:50:00;;;;;;;;;;;3.00;99.90;;;;;;20914240;28;19908;-77
2021/10/11 03:00:01;;;;;;;;;;;3.00;99.90;;;;;;20938615;28;19912;-77
2021/10/11 03:10:02;;;;;;;;;;;3.20;99.90;;;;;;20945210;28;20033;-77
2021/10/11 03:20:04;;;;;;;;;;;3.10;99.90;;;;;;20920667;28;19912;-77
2021/10/11 03:30:04;;;;;;;;;;;3.00;99.90;;;;;;20921128;28;19909;-77
2021/10/11 03:40:05;;;;;;;;;;;3.00;99.90;;;;;;20935724;28;20397;-77
2021/10/11 03:50:06;;;;;;;;;;;3.00;99.90;;;;;;20918420;28;19931;-77
2021/10/11 04:00:07;;;;;;;;;;;3.10;99.90;;;;;;20920116;28;20391;-76
2021/10/11 04:10:12;;;;;;;;;;;3.20;99.90;;;;;;20924723;28;19909;-78
2021/10/11 04:20:13;;;;;;;;;;;3.10;99.90;;;;;;20923345;28;20283;-77
2021/10/11 04:30:13;;;;;;;;;;;3.10;99.90;;;;;;20917989;28;20367;-77
2021/10/11 04:40:14;;;;;;;;;;;3.10;99.90;;;;;;20919332;28;19992;-76
2021/10/11 04:50:15;;;;;;;;;;;3.20;99.90;;;;;;20922868;28;19919;-77
2021/10/11 05:00:16;;;;;;;;;;;3.20;99.90;;;;;;20959889;28;19919;-77
2021/10/11 05:10:17;;;;;;;;;;;3.30;99.90;;;;;;20999035;28;19915;-77
2021/10/11 05:20:18;;;;;;;;;;;3.30;99.90;;;;;;20977274;28;19999;-76
2021/10/11 05:30:19;;;;;;;;;;;3.20;99.90;;;;;;21004065;28;19912;-76
2021/10/11 05:40:19;;;;;;;;;;;3.30;99.90;;;;;;20994147;28;19966;-77
2021/10/11 05:50:20;;;;;;;;;;;3.40;99.90;;;;;;20992481;28;19912;-76
2021/10/11 06:00:21;;;;;;;;;;;3.30;99.90;;;;;;20990987;28;19916;-77
2021/10/11 06:10:22;;;;;;;;;;;3.30;99.90;;;;;;20992454;28;19916;-77
2021/10/11 06:20:22;;;;;;;;;;;3.20;99.90;;;;;;20991360;28;19912;-76
2021/10/11 06:30:23;;;;;;;;;;;3.20;99.90;;;;;;20990045;28;19961;-77
2021/10/11 06:40:24;;;;;;;;;;;3.30;99.90;;;;;;20991556;28;19919;-77
2021/10/11 06:50:24;;;;;;;;;;;3.50;99.90;;;;;;20990580;28;20002;-77
2021/10/11 07:00:25;;;;;;;;;;;3.80;99.90;;;;;;20936712;22;19966;-79
2021/10/11 07:10:26;;;;;;;;;;;4.10;99.90;;;;;;20870112;28;19909;-78
2021/10/11 07:20:27;;;;;;;;;;;4.40;99.90;;;;;;20870498;28;19920;-79
2021/10/11 07:30:27;;;;;;;;;;;4.80;99.90;;;;;;20868141;28;20383;-79
2021/10/11 07:40:28;;;;;;;;;;;4.80;99.90;;;;;;20883778;28;19913;-80
2021/10/11 07:50:29;;;;;;;;;;;5.20;99.90;;;;;;20885655;28;19947;-79
2021/10/11 08:00:30;;;;;;;;;;;5.30;99.90;;;;;;20882346;28;19945;-78
2021/10/11 08:10:31;;;;;;;;;;;5.60;99.90;;;;;;20881522;28;19909;-78
2021/10/11 08:20:31;;;;;;;;;;;5.80;99.90;;;;;;20896690;28;19913;-79
2021/10/11 08:30:32;;;;;;;;;;;5.80;99.90;;;;;;20895330;28;19916;-79
2021/10/11 08:40:33;;;;;;;;;;;5.90;99.90;;;;;;20879653;28;19916;-79
2021/10/11 08:50:34;;;;;;;;;;;6.00;99.90;;;;;;20879388;28;19909;-79
2021/10/11 09:00:36;;;;;;;;;;;6.30;99.90;;;;;;20892977;28;19968;-78
2021/10/11 09:10:52;;;;;;;;;;;6.50;99.90;;;;;;20875117;28;19913;-79
2021/10/11 09:20:53;;;;;;;;;;;6.60;99.90;;;;;;20877247;28;19921;-79
2021/10/11 09:30:54;;;;;;;;;;;6.80;99.90;;;;;;20890667;28;19909;-78
2021/10/11 09:40:57;;;;;;;;;;;7.10;99.90;;;;;;20873278;28;19963;-79
2021/10/11 09:50:57;;;;;;;;;;;7.20;99.90;;;;;;20872600;28;20575;-78
2021/10/11 10:00:58;;;;;;;;;;;7.50;99.90;;;;;;20866132;28;19913;-78
2021/10/11 10:11:00;;;;;;;;;;;7.90;99.90;;;;;;20866277;28;19916;-78
2021/10/11 10:21:01;;;;;;;;;;;7.40;99.90;;;;;;20878664;28;20035;-79
2021/10/11 10:31:02;;;;;;;;;;;7.50;99.90;;;;;;20876348;28;19909;-79
2021/10/11 10:41:03;;;;;;;;;;;7.90;99.90;;;;;;20879076;28;19924;-79
2021/10/11 10:51:04;;;;;;;;;;;8.00;99.90;;;;;;20899809;28;19919;-79
2021/10/11 11:01:05;;;;;;;;;;;7.80;99.90;;;;;;20883441;28;19913;-79
2021/10/11 11:11:06;;;;;;;;;;;8.60;99.90;;;;;;20892043;28;19924;-79
2021/10/11 11:21:07;;;;;;;;;;;9.30;99.90;;;;;;20900662;28;19913;-79
2021/10/11 11:31:10;;;;;;;;;;;10.10;99.90;;;;;;20856769;28;20375;-79
2021/10/11 11:41:11;;;;;;;;;;;10.20;99.90;;;;;;20851022;28;19919;-79
2021/10/11 11:51:13;;;;;;;;;;;11.70;99.90;;;;;;20845730;28;19909;-79
2021/10/11 12:01:17;;;;;;;;;;;12.00;99.90;;;;;;20845888;28;19913;-78
2021/10/11 12:11:18;;;;;;;;;;;12.70;99.90;;;;;;20858898;28;19951;-78
2021/10/11 12:21:27;;;;;;;;;;;12.90;99.90;;;;;;20848459;28;19913;-78
2021/10/11 12:31:29;;;;;;;;;;;13.40;99.90;;;;;;20848391;28;19924;-78
2021/10/11 12:41:30;;;;;;;;;;;13.40;99.90;;;;;;20847258;28;19917;-78
2021/10/11 12:51:34;;;;;;;;;;;13.80;99.90;;;;;;20849906;28;19916;-78
2021/10/11 13:01:35;;;;;;;;;;;13.60;99.90;;;;;;20907242;22;19958;-74
2021/10/11 13:11:36;;;;;;;;;;;13.50;99.90;;;;;;20913505;28;19908;-74
2021/10/11 13:21:38;;;;;;;;;;;13.90;99.90;;;;;;20911463;28;19928;-74
2021/10/11 16:06:36;;;;;;;;;;;12.60;99.90;;;;;;20899401;28;19944;-74
2021/10/11 16:16:37;;;;;;;;;;;12.40;99.90;;;;;;20883497;28;19925;-74
2021/10/11 16:26:38;;;;;;;;;;;12.40;99.90;;;;;;20860177;28;19916;-75
2021/10/11 16:36:39;;;;;;;;;;;12.30;99.90;;;;;;20851387;28;19967;-75
2021/10/11 16:46:40;;;;;;;;;;;12.00;99.90;;;;;;20851631;28;19923;-75
2021/10/11 16:56:41;;;;;;;;;;;11.60;99.90;;;;;;20895375;28;20374;-75
2021/10/11 17:06:41;;;;;;;;;;;11.00;99.90;;;;;;20885204;28;19920;-74
2021/10/11 17:16:43;;;;;;;;;;;10.90;99.90;;;;;;20868856;28;19924;-74
2021/10/11 17:26:44;;;;;;;;;;;10.20;99.90;;;;;;20893114;28;19913;-75
2021/10/11 17:36:45;;;;;;;;;;;10.00;99.90;;;;;;20890301;28;20605;-74
2021/10/11 17:46:46;;;;;;;;;;;10.00;99.90;;;;;;20890136;28;19919;-74
2021/10/11 17:56:46;;;;;;;;;;;9.80;99.90;;;;;;20885198;28;19927;-75
2021/10/11 18:06:48;;;;;;;;;;;9.80;99.90;;;;;;20885587;28;19923;-75
2021/10/11 18:16:49;;;;;;;;;;;9.40;99.90;;;;;;20887717;28;20374;-74
2021/10/11 18:26:50;;;;;;;;;;;9.50;99.90;;;;;;20886575;28;20394;-74
2021/10/11 18:36:50;;;;;;;;;;;9.60;99.90;;;;;;20887306;28;19916;-75
2021/10/11 18:46:51;;;;;;;;;;;9.00;99.90;;;;;;20887883;28;19913;-75
2021/10/11 18:56:52;;;;;;;;;;;9.00;99.90;;;;;;20910716;22;19937;-77
2021/10/11 19:06:53;;;;;;;;;;;8.70;99.90;;;;;;20899632;28;19938;-78
2021/10/11 19:16:53;;;;;;;;;;;8.50;99.90;;;;;;20901626;28;19926;-79
2021/10/11 19:26:54;;;;;;;;;;;8.40;99.90;;;;;;20905500;28;19996;-78
2021/10/11 19:36:56;;;;;;;;;;;8.40;99.90;;;;;;20917707;28;19917;-78
2021/10/11 19:46:57;;;;;;;;;;;8.20;99.90;;;;;;20920799;28;19963;-79
2021/10/11 19:56:58;;;;;;;;;;;8.10;99.90;;;;;;20919949;28;20355;-78
2021/10/11 20:06:58;;;;;;;;;;;8.10;99.90;;;;;;20922015;28;19949;-80
2021/10/11 20:16:59;;;;;;;;;;;8.00;99.90;;;;;;20903004;28;20004;-81
2021/10/11 20:27:00;;;;;;;;;;;8.10;99.90;;;;;;20899484;28;19909;-81
2021/10/11 20:37:01;;;;;;;;;;;8.00;99.90;;;;;;20898230;28;19985;-80
2021/10/11 20:47:02;;;;;;;;;;;7.90;99.90;;;;;;20900229;28;19909;-80
2021/10/11 20:57:03;;;;;;;;;;;7.80;99.90;;;;;;20895086;28;19916;-80
2021/10/11 21:07:03;;;;;;;;;;;7.80;99.90;;;;;;20891814;28;19963;-80
2021/10/11 21:17:04;;;;;;;;;;;7.90;99.90;;;;;;20921457;28;19920;-79
2021/10/11 21:27:05;;;;;;;;;;;7.60;99.90;;;;;;20904498;28;20380;-78
2021/10/11 21:37:06;;;;;;;;;;;7.70;99.90;;;;;;20859698;28;19913;-80
2021/10/11 21:47:07;;;;;;;;;;;7.80;99.90;;;;;;20850700;28;20295;-80
2021/10/11 21:57:07;;;;;;;;;;;7.80;99.90;;;;;;20847757;28;19913;-79
2021/10/11 22:07:08;;;;;;;;;;;7.70;99.90;;;;;;20846130;28;20441;-80
2021/10/11 22:17:09;;;;;;;;;;;7.70;99.90;;;;;;20846461;28;20337;-78
2021/10/11 22:27:09;;;;;;;;;;;7.60;99.90;;;;;;20846319;28;19975;-79
2021/10/11 22:37:10;;;;;;;;;;;7.60;99.90;;;;;;20845528;28;20390;-79
2021/10/11 22:47:11;;;;;;;;;;;7.60;99.90;;;;;;20845022;28;19952;-80
2021/10/11 22:57:11;;;;;;;;;;;7.80;99.90;;;;;;20844788;28;20406;-79
2021/10/11 23:07:12;;;;;;;;;;;7.90;99.90;;;;;;20851162;28;19909;-80
2021/10/11 23:17:13;;;;;;;;;;;7.80;99.90;;;;;;20860560;28;19963;-78
2021/10/11 23:27:15;;;;;;;;;;;7.80;99.90;;;;;;20861241;28;19909;-77
2021/10/11 23:37:16;;;;;;;;;;;7.90;99.90;;;;;;20859476;28;19917;-79
2021/10/11 23:47:17;;;;;;;;;;;8.00;99.90;;;;;;20873397;28;20008;-79
2021/10/11 23:57:18;;;;;;;;;;;7.90;99.90;;;;;;20857525;28;19988;-79
